KGSO

Piedmont Triad International

Airport
ICAO code
KGSO
Summary
ICAO Region
NAM
ICAO Territory
Location

Friendship Township, Guilford County, Greensboro, North Carolina,

Elevation
925 ft
Coordinates
36° 5' 52" N , 79° 56' 14" W
KCC
Cfa
Metar
Observation
KGSO 120254Z 00000KT 10SM SCT050 SCT250 23/21 A3002 RMK AO2 SLP153 OCNL LTGICCG N CB DSNT N T02330206 51011
Station
Greensboro, Piedmont Triad International Airport
Date/Time
2022-08-12 02:54:00
Wind direction
Wind speed
00 kts
Lowest cloud amount
scattered clouds
Temperature
23.3°C
Dew point
20.6°C
Humidity
84%
Weather condition
n/a

Description

Piedmont Triad International Airport (commonly referred to as "PTIA" or just "PTI") is an airport just west of Greensboro, serving Greensboro, High Point and Winston-Salem in North Carolina.

Climatology

Humid “subtropical” climate (Köppen climate classification Cfa) - characterized by hot, humid summers and cool winters. Significant amounts of precipitation occur in all seasons in most areas. Winter rainfall (and sometimes snowfall) is associated with large storms that the westerlies steer from west to east. Most summer rainfall occurs during thunderstorms and occasional tropical storms (hurricanes). Tornadoes are a threat in the Spring.

Airport map

Aerial View

SKYbrary Partners:

Safety knowledge contributed by: